Time;durP1;ratioP1;P1;durP2;ratioP2;P2;SDS_P1;SDS_P2;PMS_P1;PMS_P2;Temp;Humidity;BMP_temperature;BMP_pressure;BME280_temperature;BME280_humidity;BME280_pressure;Samples;Min_cycle;Max_cycle;Signal;HPM_P1;HPM_P2
2022/03/30 00:00:36;;;;;;;;;49.00;41.50;;;;;16.63;53.61;99904.47;2103723;28;45826;-60
2022/03/30 00:01:36;;;;;;;;;48.75;41.25;;;;;16.61;53.94;99907.25;2101277;28;47229;-61
2022/03/30 00:02:37;;;;;;;;;51.25;42.25;;;;;16.60;53.60;99910.88;2103889;28;47526;-61
2022/03/30 00:03:37;;;;;;;;;48.00;41.00;;;;;16.60;53.64;99913.56;2099631;28;47175;-61
2022/03/30 00:04:38;;;;;;;;;51.00;41.25;;;;;16.60;54.10;99910.03;2096884;28;47590;-60
2022/03/30 00:05:39;;;;;;;;;49.20;41.40;;;;;16.59;54.14;99905.63;2103746;28;47582;-60
2022/03/30 00:06:39;;;;;;;;;54.25;43.25;;;;;16.57;53.88;99910.22;2103400;28;47207;-60
2022/03/30 00:07:39;;;;;;;;;52.25;42.75;;;;;16.55;54.37;99909.44;2103801;28;47787;-61
2022/03/30 00:08:42;;;;;;;;;49.00;41.25;;;;;16.54;54.33;99913.09;2085328;28;48119;-59
2022/03/30 00:09:42;;;;;;;;;50.60;41.60;;;;;16.52;54.58;99913.19;2083803;28;46663;-61
2022/03/30 00:10:43;;;;;;;;;49.25;40.75;;;;;16.52;54.29;99915.00;2082116;28;47497;-60
2022/03/30 00:11:44;;;;;;;;;52.75;43.00;;;;;16.49;54.20;99913.34;2082590;28;48168;-61
2022/03/30 00:12:45;;;;;;;;;53.50;43.00;;;;;16.49;54.49;99913.34;2097726;28;47737;-58
2022/03/30 00:13:45;;;;;;;;;52.50;43.00;;;;;16.49;54.28;99907.97;2095170;28;47224;-61
2022/03/30 00:14:47;;;;;;;;;51.00;41.00;;;;;16.47;54.69;99910.75;2101107;28;47631;-60
2022/03/30 00:15:47;;;;;;;;;52.60;43.80;;;;;16.47;54.54;99907.22;2103610;28;47275;-60
2022/03/30 00:16:48;;;;;;;;;51.00;41.75;;;;;16.47;54.54;99909.88;2101781;28;47550;-58
2022/03/30 00:17:48;;;;;;;;;54.75;44.75;;;;;16.46;54.67;99911.69;2103647;28;47757;-60
2022/03/30 00:18:48;;;;;;;;;54.25;43.75;;;;;16.46;54.67;99905.50;2103569;28;47222;-59
2022/03/30 00:19:49;;;;;;;;;55.25;44.50;;;;;16.46;54.28;99908.16;2098687;28;47664;-60
2022/03/30 00:20:49;;;;;;;;;49.00;41.25;;;;;16.47;54.40;99904.53;2100448;28;47518;-60
2022/03/30 00:21:50;;;;;;;;;53.25;43.50;;;;;16.46;54.79;99903.66;2086215;28;47173;-60
2022/03/30 00:22:50;;;;;;;;;54.75;43.50;;;;;16.46;54.86;99908.16;2091624;28;47562;-60
2022/03/30 00:23:50;;;;;;;;;46.75;38.75;;;;;16.45;54.39;99903.75;2103188;28;47987;-58
2022/03/30 00:24:51;;;;;;;;;56.50;45.00;;;;;16.44;54.62;99900.22;2105609;27;46949;-60
2022/03/30 00:25:52;;;;;;;;;56.25;45.25;;;;;16.42;54.72;99902.13;2104036;27;48084;-60
2022/03/30 00:26:52;;;;;;;;;56.25;44.50;;;;;16.41;54.43;99902.22;2103637;28;47317;-61
2022/03/30 00:27:53;;;;;;;;;52.75;43.00;;;;;16.39;54.25;99898.78;2103567;28;47283;-61
2022/03/30 00:28:53;;;;;;;;;54.50;44.75;;;;;16.37;54.38;99897.97;2099835;28;47289;-61
2022/03/30 00:29:54;;;;;;;;;56.25;46.00;;;;;16.36;54.97;99896.25;2103666;28;47838;-60
2022/03/30 00:30:57;;;;;;;;;55.50;45.00;;;;;16.34;54.72;99895.50;2097809;28;47964;-62
2022/03/30 00:31:58;;;;;;;;;53.60;44.20;;;;;16.34;54.48;99900.84;2102015;28;47050;-60
2022/03/30 00:32:58;;;;;;;;;54.00;43.50;;;;;16.33;55.00;99902.66;2103521;28;47461;-61
2022/03/30 00:33:59;;;;;;;;;49.25;41.50;;;;;16.34;54.81;99898.16;2103463;28;47883;-58
2022/03/30 00:34:59;;;;;;;;;53.25;43.00;;;;;16.34;54.73;99899.03;2101833;28;47591;-62
2022/03/30 00:36:00;;;;;;;;;53.00;43.50;;;;;16.34;54.58;99896.34;2103482;28;46012;-60
2022/03/30 00:37:00;;;;;;;;;56.75;45.75;;;;;16.34;54.55;99891.00;2103352;28;48184;-59
2022/03/30 00:38:01;;;;;;;;;58.75;47.00;;;;;16.34;54.92;99893.69;2102897;28;47351;-59
2022/03/30 00:39:01;;;;;;;;;53.00;44.25;;;;;16.34;54.62;99896.34;2102986;28;47940;-60
2022/03/30 00:40:04;;;;;;;;;55.00;45.00;;;;;16.35;55.10;99891.84;2100955;28;47694;-61
2022/03/30 00:41:05;;;;;;;;;55.00;43.40;;;;;16.33;54.88;99889.28;2102795;28;48538;-60
2022/03/30 00:42:20;;;;;;;;;53.00;42.75;;;;;16.32;54.69;99889.38;2095775;28;47525;-60
2022/03/30 00:43:21;;;;;;;;;55.60;44.40;;;;;16.31;54.86;99887.66;2093370;28;47711;-60
2022/03/30 00:44:21;;;;;;;;;52.25;43.75;;;;;16.31;54.76;99891.19;2094445;28;47382;-58
2022/03/30 00:45:23;;;;;;;;;59.75;47.50;;;;;16.30;55.28;99883.25;2085111;28;48185;-60
2022/03/30 00:46:23;;;;;;;;;55.40;46.00;;;;;16.29;55.11;99884.19;2085330;28;47419;-59
2022/03/30 00:47:27;;;;;;;;;55.25;44.00;;;;;16.29;54.62;99889.56;2106584;27;47170;-55
2022/03/30 00:48:28;;;;;;;;;53.40;43.00;;;;;16.28;54.83;99883.34;2095106;28;47308;-57
2022/03/30 00:49:28;;;;;;;;;59.75;48.00;;;;;16.28;54.73;99885.16;2101451;27;48158;-59
2022/03/30 00:50:29;;;;;;;;;54.00;43.25;;;;;16.27;54.91;99880.75;2085195;28;47799;-59
2022/03/30 00:51:30;;;;;;;;;57.00;46.50;;;;;16.27;55.35;99878.09;2085475;28;48264;-60
2022/03/30 00:52:31;;;;;;;;;56.60;46.20;;;;;16.25;55.04;99871.94;2103662;27;47721;-60
2022/03/30 00:53:31;;;;;;;;;53.75;43.75;;;;;16.24;55.03;99875.56;2104722;27;47807;-59
2022/03/30 00:54:32;;;;;;;;;48.25;40.00;;;;;16.22;55.38;99872.09;2102649;27;47706;-61
2022/03/30 00:55:33;;;;;;;;;54.00;45.00;;;;;16.22;54.99;99869.44;2105708;27;47147;-58
2022/03/30 00:56:36;;;;;;;;;55.00;44.80;;;;;16.21;55.44;99870.38;2103309;28;47327;-60
2022/03/30 00:57:37;;;;;;;;;54.80;45.40;;;;;16.19;55.34;99871.34;2105544;27;47646;-61
2022/03/30 00:58:38;;;;;;;;;54.60;45.40;;;;;16.19;55.28;99870.47;2101109;27;47951;-59
2022/03/30 00:59:40;;;;;;;;;59.25;47.00;;;;;16.17;55.03;99867.91;2072263;28;47739;-59
2022/03/30 01:00:41;;;;;;;;;57.20;45.60;;;;;16.18;55.39;99866.94;2075937;28;46769;-60
2022/03/30 01:01:41;;;;;;;;;50.25;42.75;;;;;16.17;55.12;99867.91;2101908;27;47859;-60
2022/03/30 01:02:45;;;;;;;;;56.75;46.00;;;;;16.15;55.23;99861.78;2103389;27;47706;-59
2022/03/30 01:03:46;;;;;;;;;53.20;43.80;;;;;16.17;55.67;99867.03;2101238;27;48071;-60
2022/03/30 01:04:47;;;;;;;;;54.50;44.25;;;;;16.15;55.13;99859.09;2104410;27;47585;-60
2022/03/30 01:05:47;;;;;;;;;49.00;41.00;;;;;16.17;55.43;99859.00;2098046;27;47088;-59
2022/03/30 01:06:48;;;;;;;;;57.00;45.50;;;;;16.16;55.88;99860.81;2100829;27;47958;-61
2022/03/30 01:07:48;;;;;;;;;53.75;44.50;;;;;16.15;55.50;99860.91;2094948;28;47538;-61
2022/03/30 01:08:49;;;;;;;;;56.50;45.25;;;;;16.14;55.28;99861.88;2104787;27;47935;-60
2022/03/30 01:09:49;;;;;;;;;51.25;41.75;;;;;16.15;55.45;99858.25;2101428;27;47735;-59
2022/03/30 01:10:50;;;;;;;;;56.50;46.00;;;;;16.14;55.47;99848.47;2103621;28;47992;-56
2022/03/30 01:11:53;;;;;;;;;56.50;46.00;;;;;16.13;55.68;99844.06;2101380;27;47897;-60
2022/03/30 01:12:54;;;;;;;;;55.60;44.00;;;;;16.14;56.07;99851.16;2104700;27;47709;-60
2022/03/30 01:13:55;;;;;;;;;55.20;44.60;;;;;16.14;56.02;99845.81;2105188;27;47595;-60
2022/03/30 01:14:55;;;;;;;;;56.75;45.50;;;;;16.13;56.07;99846.72;2101672;27;48031;-60
2022/03/30 01:15:56;;;;;;;;;57.00;45.25;;;;;16.14;55.63;99851.16;2104423;28;47696;-60
2022/03/30 01:16:56;;;;;;;;;51.50;43.50;;;;;16.14;55.79;99848.47;2080579;28;47109;-60
2022/03/30 01:17:56;;;;;;;;;51.75;43.25;;;;;16.13;56.08;99842.28;2079126;28;47316;-60
2022/03/30 01:19:06;;;;;;;;;57.50;46.75;;;;;16.14;55.72;99841.31;2104813;28;47807;-60
2022/03/30 01:20:07;;;;;;;;;60.40;48.40;;;;;16.14;55.61;99843.13;2101826;28;47659;-61
2022/03/30 01:21:10;;;;;;;;;55.20;45.20;;;;;16.14;56.08;99837.78;2078360;28;47542;-61
2022/03/30 01:22:11;;;;;;;;;57.20;46.80;;;;;16.13;55.73;99834.25;2079467;28;48078;-60
2022/03/30 01:23:12;;;;;;;;;56.25;44.75;;;;;16.12;55.71;99832.50;2103116;28;47658;-61
2022/03/30 01:24:13;;;;;;;;;57.40;46.00;;;;;16.12;55.52;99828.94;2104916;28;47431;-62
2022/03/30 01:25:14;;;;;;;;;57.80;47.00;;;;;16.12;55.60;99828.94;2105542;27;47323;-60
2022/03/30 01:26:14;;;;;;;;;55.50;45.50;;;;;16.13;55.83;99830.66;2102200;28;45349;-60
2022/03/30 01:27:15;;;;;;;;;57.25;45.25;;;;;16.13;55.66;99822.66;2104587;28;47893;-59
2022/03/30 01:28:15;;;;;;;;;51.00;43.00;;;;;16.16;55.45;99833.19;2103957;28;47931;-58
2022/03/30 01:33:14;;;;;;;;;58.60;46.00;;;;;16.14;56.14;99821.72;2104522;28;47443;-59
2022/03/30 01:34:14;;;;;;;;;51.25;42.00;;;;;16.14;55.94;99822.59;2104546;28;47491;-60
2022/03/30 01:35:15;;;;;;;;;55.25;45.00;;;;;16.13;55.66;99815.50;2095733;28;45975;-60
2022/03/30 01:36:18;;;;;;;;;60.75;48.00;;;;;16.13;55.63;99820.84;2095445;28;47680;-58
2022/03/30 01:37:18;;;;;;;;;61.40;48.00;;;;;16.12;55.82;99816.44;2101407;28;48023;-60
2022/03/30 01:38:19;;;;;;;;;54.00;45.00;;;;;16.10;55.67;99812.97;2096385;28;48387;-60
2022/03/30 01:39:19;;;;;;;;;55.00;44.25;;;;;16.10;55.58;99814.81;2100094;28;47805;-60
2022/03/30 01:40:19;;;;;;;;;55.75;45.25;;;;;16.08;55.93;99812.22;2102297;28;47704;-59
2022/03/30 01:41:20;;;;;;;;;61.25;48.00;;;;;16.07;55.62;99812.31;2108716;27;47988;-58
2022/03/30 01:42:20;;;;;;;;;56.00;44.75;;;;;16.05;56.04;99806.19;2110694;27;47878;-60
2022/03/30 01:43:21;;;;;;;;;56.25;45.50;;;;;16.03;56.22;99814.31;2103314;28;47724;-59
2022/03/30 01:44:22;;;;;;;;;58.50;47.50;;;;;16.03;56.29;99811.63;2100533;28;48261;-60
2022/03/30 01:45:23;;;;;;;;;55.00;43.75;;;;;16.01;56.26;99810.88;2100336;28;47753;-61
2022/03/30 01:46:23;;;;;;;;;60.50;46.75;;;;;16.01;56.27;99812.69;2104558;28;47762;-59
2022/03/30 01:47:24;;;;;;;;;58.75;48.00;;;;;16.01;56.02;99812.69;2103174;28;47695;-60
2022/03/30 01:48:25;;;;;;;;;59.00;47.20;;;;;16.00;56.23;99811.78;2101728;28;46879;-61
2022/03/30 01:49:26;;;;;;;;;58.50;45.25;;;;;16.01;55.91;99810.00;2102218;28;48047;-60
2022/03/30 01:50:29;;;;;;;;;54.25;45.00;;;;;16.01;56.33;99807.34;2098707;28;47316;-59
2022/03/30 01:51:29;;;;;;;;;61.60;49.80;;;;;15.98;56.19;99810.16;2104166;28;47817;-61
2022/03/30 01:52:30;;;;;;;;;60.25;49.00;;;;;15.96;56.19;99807.59;2098239;28;47379;-61
2022/03/30 01:53:30;;;;;;;;;60.25;48.75;;;;;15.95;56.37;99813.03;2096207;28;47856;-61
2022/03/30 01:54:35;;;;;;;;;61.50;49.25;;;;;15.94;56.32;99811.31;2098534;28;47573;-60
2022/03/30 01:55:35;;;;;;;;;61.20;48.00;;;;;15.94;56.52;99800.59;2104523;28;47047;-61
2022/03/30 01:56:36;;;;;;;;;58.50;47.75;;;;;15.93;56.45;99806.91;2095631;28;47950;-59
2022/03/30 01:57:37;;;;;;;;;59.75;49.25;;;;;15.91;56.25;99803.47;2095962;28;47733;-60
2022/03/30 01:58:38;;;;;;;;;58.25;46.50;;;;;15.89;56.66;99812.44;2104227;28;47753;-60
2022/03/30 01:59:40;;;;;;;;;60.50;48.50;;;;;15.88;56.46;99807.19;2104009;28;47778;-60
2022/03/30 02:00:40;;;;;;;;;56.60;45.00;;;;;15.87;56.88;99800.06;2103886;28;47675;-60
2022/03/30 02:01:43;;;;;;;;;58.75;47.25;;;;;15.87;56.70;99802.75;2102560;28;47696;-59
2022/03/30 02:02:44;;;;;;;;;59.80;49.00;;;;;15.86;56.79;99807.25;2100904;28;47534;-61
2022/03/30 02:03:45;;;;;;;;;59.20;48.40;;;;;15.85;56.60;99801.97;2103847;27;47748;-60
2022/03/30 02:04:45;;;;;;;;;62.25;49.25;;;;;15.85;56.87;99799.31;2104234;28;47894;-59
2022/03/30 02:05:46;;;;;;;;;55.50;46.25;;;;;15.86;56.44;99798.34;2104198;28;47570;-58
2022/03/30 02:06:46;;;;;;;;;57.75;45.50;;;;;15.86;56.71;99803.72;2103947;28;47692;-61
2022/03/30 02:07:48;;;;;;;;;60.00;49.00;;;;;15.85;56.66;99799.31;2104409;28;47275;-60
2022/03/30 02:08:48;;;;;;;;;56.00;45.20;;;;;15.83;56.55;99802.06;2101467;28;47018;-61
2022/03/30 02:09:49;;;;;;;;;62.50;50.25;;;;;15.82;56.95;99797.69;2102907;28;45475;-59
2022/03/30 02:10:49;;;;;;;;;61.00;47.75;;;;;15.82;56.99;99796.81;2104209;28;47597;-59
2022/03/30 02:11:50;;;;;;;;;57.00;47.00;;;;;15.81;56.92;99798.63;2101632;28;47380;-59
2022/03/30 02:12:51;;;;;;;;;24.75;23.50;;;;;15.81;56.96;99795.97;2098441;28;47415;-60
2022/03/30 02:13:51;;;;;;;;;55.75;44.25;;;;;15.82;56.34;99788.78;2086178;28;47649;-60
2022/03/30 02:14:53;;;;;;;;;58.00;46.50;;;;;15.82;56.51;99788.78;2078284;28;47999;-60
2022/03/30 02:15:53;;;;;;;;;59.20;48.00;;;;;15.83;56.72;99790.50;2095773;28;47568;-59
2022/03/30 02:16:54;;;;;;;;;59.25;47.00;;;;;15.84;57.05;99790.41;2104077;28;48115;-60
2022/03/30 02:17:55;;;;;;;;;58.75;47.75;;;;;15.85;56.42;99785.94;2104530;28;47725;-60
2022/03/30 02:18:55;;;;;;;;;54.25;43.25;;;;;15.85;56.44;99786.78;2102629;28;47744;-60
2022/03/30 02:19:56;;;;;;;;;60.50;47.00;;;;;15.85;57.03;99783.25;2102491;27;48034;-60
2022/03/30 02:20:56;;;;;;;;;58.50;45.75;;;;;15.84;56.74;99779.72;2075474;28;45749;-60
2022/03/30 02:21:56;;;;;;;;;56.50;46.50;;;;;15.85;56.45;99780.59;2076210;28;47415;-58
2022/03/30 02:22:57;;;;;;;;;54.75;44.25;;;;;15.85;56.93;99776.09;2086046;28;47300;-60
2022/03/30 02:23:57;;;;;;;;;57.50;46.25;;;;;15.85;56.70;99785.94;2085862;28;48032;-59
2022/03/30 02:24:58;;;;;;;;;59.00;46.25;;;;;15.85;56.91;99778.78;2104230;27;47482;-60
2022/03/30 02:25:58;;;;;;;;;57.50;47.00;;;;;15.85;56.71;99780.59;2102718;28;47396;-59
2022/03/30 02:26:59;;;;;;;;;60.50;49.50;;;;;15.85;56.70;99777.91;2104011;28;47222;-58
2022/03/30 02:27:59;;;;;;;;;58.75;47.50;;;;;15.84;56.46;99769.03;2104317;28;47490;-60
2022/03/30 02:29:00;;;;;;;;;57.50;47.00;;;;;15.82;56.47;99773.59;2103595;28;47303;-57
2022/03/30 02:30:01;;;;;;;;;60.50;46.75;;;;;15.83;56.57;99777.13;2096151;28;48001;-60
2022/03/30 02:31:01;;;;;;;;;58.25;47.50;;;;;15.83;56.98;99769.13;2104302;28;48004;-61
2022/03/30 02:32:03;;;;;;;;;57.25;46.50;;;;;15.82;56.91;99773.59;2104241;28;47229;-61
2022/03/30 02:33:03;;;;;;;;;55.40;46.20;;;;;15.82;56.90;99778.94;2104414;28;48312;-61
2022/03/30 02:34:03;;;;;;;;;55.75;45.00;;;;;15.80;56.57;99778.19;2104171;28;47284;-61
2022/03/30 02:35:04;;;;;;;;;57.75;46.50;;;;;15.79;56.46;99775.59;2098344;28;47536;-60
2022/03/30 02:36:05;;;;;;;;;56.50;44.75;;;;;15.78;56.71;99768.53;2104445;28;47951;-60
2022/03/30 02:37:05;;;;;;;;;55.50;45.50;;;;;15.76;56.95;99776.66;2100865;28;48164;-60
2022/03/30 02:38:06;;;;;;;;;61.00;47.50;;;;;15.73;57.11;99768.78;2102530;28;47754;-57
2022/03/30 02:39:07;;;;;;;;;59.75;48.25;;;;;15.73;56.80;99762.56;2104186;28;47462;-59
2022/03/30 02:40:08;;;;;;;;;55.75;45.00;;;;;15.71;56.68;99770.69;2103961;28;47826;-60
2022/03/30 02:41:09;;;;;;;;;60.50;48.00;;;;;15.70;56.64;99768.09;2102044;28;47281;-62
2022/03/30 02:42:09;;;;;;;;;58.60;46.40;;;;;15.69;57.10;99761.03;2097791;27;47514;-60
2022/03/30 02:43:10;;;;;;;;;56.00;46.50;;;;;15.69;56.73;99761.91;2106562;27;47810;-61
2022/03/30 02:44:12;;;;;;;;;57.75;47.50;;;;;15.69;56.75;99764.56;2105313;27;46646;-60
2022/03/30 02:45:13;;;;;;;;;57.20;45.40;;;;;15.69;57.12;99767.25;2099351;28;48313;-60
2022/03/30 02:46:13;;;;;;;;;55.25;45.00;;;;;15.70;56.96;99763.63;2106072;27;47625;-60
2022/03/30 02:47:14;;;;;;;;;56.00;46.25;;;;;15.71;56.74;99762.66;2102129;27;47554;-61
2022/03/30 02:48:22;;;;;;;;;55.00;44.00;;;;;15.72;57.23;99761.72;2104079;27;47315;-61
2022/03/30 02:49:24;;;;;;;;;55.00;44.60;;;;;15.70;57.10;99760.94;2104461;27;47531;-60
2022/03/30 02:50:25;;;;;;;;;55.60;43.60;;;;;15.70;57.26;99763.63;2097279;27;47695;-60
2022/03/30 02:51:27;;;;;;;;;58.00;48.25;;;;;15.71;56.88;99764.47;2103760;27;47848;-60
2022/03/30 02:52:28;;;;;;;;;58.20;47.00;;;;;15.69;56.93;99761.03;2105190;27;46899;-61
2022/03/30 02:53:29;;;;;;;;;53.25;44.50;;;;;15.71;56.63;99764.47;2099435;27;47983;-61
2022/03/30 02:54:29;;;;;;;;;59.75;48.50;;;;;15.69;57.12;99759.22;2103540;27;47833;-61
2022/03/30 02:55:29;;;;;;;;;60.50;49.00;;;;;15.69;57.30;99763.72;2102555;27;47724;-61
2022/03/30 02:56:30;;;;;;;;;57.25;47.00;;;;;15.68;57.16;99765.53;2104098;28;47483;-58
2022/03/30 02:57:30;;;;;;;;;57.00;46.75;;;;;15.67;57.19;99755.78;2106889;27;47403;-60
2022/03/30 02:58:31;;;;;;;;;58.25;47.75;;;;;15.67;57.05;99754.91;2106647;27;47617;-59
2022/03/30 02:59:32;;;;;;;;;61.00;48.60;;;;;15.66;56.72;99751.38;2104090;27;48054;-60
2022/03/30 03:00:32;;;;;;;;;59.50;46.50;;;;;15.66;56.89;99759.41;2106906;27;47651;-60
2022/03/30 03:01:33;;;;;;;;;59.00;47.00;;;;;15.66;57.31;99759.41;2092480;28;47550;-59
2022/03/30 03:02:34;;;;;;;;;61.00;48.00;;;;;15.64;57.25;99750.63;2096162;28;48238;-60
2022/03/30 03:03:35;;;;;;;;;56.40;46.40;;;;;15.65;56.98;99756.81;2106975;27;45712;-61
2022/03/30 03:04:35;;;;;;;;;57.25;46.75;;;;;15.65;57.18;99748.78;2095690;28;47366;-60
2022/03/30 03:05:37;;;;;;;;;59.25;48.75;;;;;15.65;57.08;99749.66;2104366;27;47339;-59
2022/03/30 03:06:37;;;;;;;;;57.80;46.80;;;;;15.66;57.27;99745.16;2106789;27;47404;-59
2022/03/30 03:07:38;;;;;;;;;55.25;45.25;;;;;15.67;56.92;99752.25;2103841;28;47716;-60
2022/03/30 03:08:38;;;;;;;;;59.75;48.25;;;;;15.68;57.42;99752.16;2088919;28;47420;-59
2022/03/30 03:09:38;;;;;;;;;56.00;45.50;;;;;15.67;56.87;99750.44;2081029;28;45564;-59
2022/03/30 03:10:42;;;;;;;;;55.75;45.00;;;;;15.67;57.38;99750.44;2096158;28;47967;-60
2022/03/30 03:11:42;;;;;;;;;54.20;45.00;;;;;15.69;57.28;99747.66;2097855;28;47664;-58
2022/03/30 03:12:42;;;;;;;;;53.25;43.25;;;;;15.70;57.25;99746.69;2103686;27;47535;-61
2022/03/30 03:13:43;;;;;;;;;58.75;47.00;;;;;15.68;56.91;99749.47;2105933;27;47486;-58
2022/03/30 03:14:43;;;;;;;;;57.75;46.00;;;;;15.69;57.20;99750.34;2102019;27;46123;-59
2022/03/30 03:15:46;;;;;;;;;59.75;47.00;;;;;15.70;57.24;99750.25;2103218;28;47575;-59
2022/03/30 03:16:46;;;;;;;;;55.20;44.40;;;;;15.71;56.87;99753.78;2105580;27;47913;-58
2022/03/30 03:17:46;;;;;;;;;59.25;47.50;;;;;15.71;57.10;99756.44;2106127;27;47492;-61
2022/03/30 03:18:47;;;;;;;;;61.00;48.50;;;;;15.71;57.04;99759.13;2103555;27;47833;-60
2022/03/30 03:19:47;;;;;;;;;56.00;45.25;;;;;15.71;56.86;99751.09;2106961;27;47682;-61
2022/03/30 03:20:49;;;;;;;;;57.50;46.75;;;;;15.71;57.09;99751.97;2098090;27;47284;-59
2022/03/30 03:21:50;;;;;;;;;58.60;47.40;;;;;15.71;57.11;99751.97;2106378;27;47894;-61
2022/03/30 03:22:50;;;;;;;;;60.40;48.40;;;;;15.69;56.96;99745.84;2107236;27;47534;-60
2022/03/30 03:23:51;;;;;;;;;57.75;46.00;;;;;15.68;56.88;99751.28;2104299;28;47125;-59
2022/03/30 03:24:51;;;;;;;;;53.50;44.00;;;;;15.66;57.27;99745.16;2104652;27;48186;-60
2022/03/30 03:25:53;;;;;;;;;62.00;49.00;;;;;15.64;57.21;99753.28;2106584;27;47224;-60
2022/03/30 03:26:54;;;;;;;;;60.00;46.80;;;;;15.63;57.06;99746.22;2105066;27;47853;-61
2022/03/30 03:27:56;;;;;;;;;55.00;46.00;;;;;15.62;57.15;99749.81;2103916;27;48039;-61
2022/03/30 03:28:56;;;;;;;;;62.80;49.40;;;;;15.60;57.05;99741.03;2072303;28;47918;-59
2022/03/30 03:29:57;;;;;;;;;59.25;47.00;;;;;15.59;57.42;99750.84;2077895;28;47378;-57
2022/03/30 03:30:57;;;;;;;;;62.75;49.75;;;;;15.56;57.65;99747.47;2104793;27;48339;-60
2022/03/30 03:31:57;;;;;;;;;60.00;48.00;;;;;15.53;57.71;99740.50;2105046;27;47784;-60
2022/03/30 03:32:59;;;;;;;;;56.50;46.75;;;;;15.53;57.65;99745.84;2109376;27;47529;-58
2022/03/30 03:33:59;;;;;;;;;58.20;46.00;;;;;15.53;57.75;99740.50;2101495;27;47677;-60
2022/03/30 03:35:00;;;;;;;;;56.50;46.50;;;;;15.53;57.82;99742.31;2102584;27;48152;-59
2022/03/30 03:36:00;;;;;;;;;56.00;47.00;;;;;15.52;57.64;99741.44;2109594;27;47432;-60
2022/03/30 03:37:01;;;;;;;;;64.00;50.25;;;;;15.53;57.76;99743.16;2078679;28;48003;-59
2022/03/30 03:38:03;;;;;;;;;62.75;50.50;;;;;15.54;57.69;99741.34;2075671;28;47402;-59
2022/03/30 03:39:03;;;;;;;;;59.00;47.40;;;;;15.53;57.80;99736.97;2105254;27;47655;-60
2022/03/30 03:40:05;;;;;;;;;56.00;44.75;;;;;15.53;58.00;99734.28;2099914;27;47797;-59
2022/03/30 03:41:06;;;;;;;;;61.40;48.20;;;;;15.53;57.50;99735.16;2101166;27;48041;-57
2022/03/30 03:42:07;;;;;;;;;56.50;45.75;;;;;15.54;57.24;99736.88;2097754;27;47861;-60
2022/03/30 03:43:08;;;;;;;;;57.75;46.50;;;;;15.55;57.56;99735.91;2094379;28;47544;-61
2022/03/30 03:44:09;;;;;;;;;55.80;46.20;;;;;15.55;57.74;99732.38;2092393;28;47726;-60
2022/03/30 03:45:10;;;;;;;;;58.25;47.00;;;;;15.53;57.46;99737.81;2105303;27;47510;-60
2022/03/30 03:46:10;;;;;;;;;56.50;46.00;;;;;15.54;57.85;99738.69;2088546;28;48110;-59
2022/03/30 03:47:11;;;;;;;;;61.75;50.00;;;;;15.54;57.84;99731.53;2085399;28;47326;-60
2022/03/30 03:48:11;;;;;;;;;61.25;49.50;;;;;15.54;57.55;99733.34;2103956;27;48508;-58
2022/03/30 03:49:12;;;;;;;;;60.00;48.00;;;;;15.53;57.88;99732.47;2108542;27;47566;-61
2022/03/30 03:50:12;;;;;;;;;60.50;48.00;;;;;15.54;57.93;99730.66;2103108;27;47900;-61
2022/03/30 03:51:12;;;;;;;;;58.50;47.25;;;;;15.53;57.57;99732.47;2104625;27;47538;-59
2022/03/30 03:52:13;;;;;;;;;59.50;47.00;;;;;15.55;58.10;99729.72;2108154;27;47618;-61
2022/03/30 03:53:13;;;;;;;;;52.50;44.00;;;;;15.55;57.55;99727.03;2105820;27;47652;-61
2022/03/30 03:54:14;;;;;;;;;57.50;47.00;;;;;15.55;57.80;99727.91;2106315;27;47415;-61
2022/03/30 03:55:14;;;;;;;;;63.25;50.00;;;;;15.56;57.93;99726.94;2106318;27;47808;-62
2022/03/30 03:56:16;;;;;;;;;61.25;47.50;;;;;15.58;57.67;99724.16;2086418;28;47773;-60
2022/03/30 03:57:16;;;;;;;;;56.60;46.80;;;;;15.58;57.80;99725.03;2093592;28;48026;-60
2022/03/30 03:58:17;;;;;;;;;59.50;48.75;;;;;15.58;57.84;99719.69;2103729;27;48005;-61
2022/03/30 03:59:17;;;;;;;;;62.50;48.50;;;;;15.58;57.51;99722.34;2107434;27;47919;-61
2022/03/30 04:00:18;;;;;;;;;57.75;46.75;;;;;15.59;57.75;99717.88;2103700;27;47692;-60
2022/03/30 04:01:19;;;;;;;;;60.00;47.00;;;;;15.58;57.93;99724.16;2097118;28;47812;-61
2022/03/30 04:02:19;;;;;;;;;60.50;49.25;;;;;15.56;57.96;99716.25;2101971;27;46580;-60
2022/03/30 04:03:20;;;;;;;;;60.25;47.75;;;;;15.56;57.55;99716.25;2100338;27;47387;-61
2022/03/30 04:04:20;;;;;;;;;60.00;47.50;;;;;15.54;57.73;99715.47;2110614;27;47486;-60
2022/03/30 04:05:21;;;;;;;;;56.25;45.50;;;;;15.53;58.00;99718.25;2107863;27;48089;-61
2022/03/30 04:06:22;;;;;;;;;60.75;49.00;;;;;15.52;57.92;99719.19;2107341;27;47631;-59
2022/03/30 04:07:23;;;;;;;;;60.80;49.80;;;;;15.50;58.01;99716.63;2102701;27;48271;-61
2022/03/30 04:08:23;;;;;;;;;61.60;49.20;;;;;15.51;57.80;99720.16;2104830;27;48179;-61
2022/03/30 04:09:24;;;;;;;;;64.00;51.00;;;;;15.50;57.67;99721.97;2106747;27;48121;-61
2022/03/30 04:10:24;;;;;;;;;59.50;46.75;;;;;15.51;58.11;99717.47;2109089;27;47686;-60
2022/03/30 04:11:25;;;;;;;;;61.50;49.25;;;;;15.51;57.82;99720.16;2102819;27;47550;-61
2022/03/30 04:12:25;;;;;;;;;58.50;48.50;;;;;15.50;57.75;99721.97;2103194;27;48306;-59
2022/03/30 04:13:26;;;;;;;;;59.25;47.00;;;;;15.50;57.71;99718.41;2107773;27;46266;-60
2022/03/30 04:14:26;;;;;;;;;60.25;48.50;;;;;15.48;58.13;99721.16;2107235;27;46540;-60
2022/03/30 04:15:27;;;;;;;;;64.75;51.00;;;;;15.48;57.79;99723.84;2084185;28;45878;-61
2022/03/30 04:16:28;;;;;;;;;60.40;49.00;;;;;15.48;57.82;99718.50;2081312;28;47622;-61
2022/03/30 04:17:29;;;;;;;;;60.25;48.25;;;;;15.48;57.90;99715.81;2104456;27;48374;-61
2022/03/30 04:18:29;;;;;;;;;58.00;46.80;;;;;15.49;57.83;99719.34;2102221;27;47725;-61
2022/03/30 04:19:30;;;;;;;;;60.00;47.75;;;;;15.49;58.06;99716.66;2103010;27;47798;-61
2022/03/30 04:20:31;;;;;;;;;64.00;50.25;;;;;15.49;58.14;99712.19;2110721;27;48190;-61
2022/03/30 04:21:32;;;;;;;;;58.40;46.00;;;;;15.50;58.18;99716.63;2108585;27;47504;-59
2022/03/30 04:22:32;;;;;;;;;60.25;48.50;;;;;15.52;57.88;99714.72;2106378;27;47750;-60
2022/03/30 04:23:33;;;;;;;;;62.75;50.25;;;;;15.51;57.76;99707.63;2111698;27;48009;-61
2022/03/30 04:24:33;;;;;;;;;60.25;48.75;;;;;15.51;57.78;99706.78;2106964;27;47207;-61
2022/03/30 04:25:33;;;;;;;;;59.25;47.75;;;;;15.50;57.83;99710.38;2106946;27;47351;-61
2022/03/30 04:26:34;;;;;;;;;58.50;47.25;;;;;15.51;58.00;99714.81;2086196;28;47721;-60
2022/03/30 04:27:35;;;;;;;;;61.00;48.00;;;;;15.50;57.79;99708.59;2087051;28;47646;-61
2022/03/30 04:28:40;;;;;;;;;58.75;48.50;;;;;15.48;58.17;99706.94;2110070;27;47666;-61
2022/03/30 04:29:41;;;;;;;;;55.00;45.60;;;;;15.47;58.12;99711.41;2099145;27;47466;-61
2022/03/30 04:30:41;;;;;;;;;59.50;48.50;;;;;15.46;58.25;99707.03;2101541;28;47462;-60
2022/03/30 04:31:41;;;;;;;;;62.75;51.50;;;;;15.46;57.78;99703.50;2095040;28;47902;-61
2022/03/30 04:32:42;;;;;;;;;61.75;49.25;;;;;15.44;58.17;99714.28;2100266;28;47843;-60
2022/03/30 04:33:43;;;;;;;;;59.50;47.25;;;;;15.43;58.27;99711.69;2100160;28;47811;-61
2022/03/30 04:34:43;;;;;;;;;60.75;49.75;;;;;15.44;58.17;99716.09;2101331;28;47602;-59
2022/03/30 04:35:43;;;;;;;;;61.25;49.50;;;;;15.44;58.26;99713.41;2102829;28;47514;-61
2022/03/30 04:36:44;;;;;;;;;61.25;48.50;;;;;15.43;57.90;99714.38;2103744;28;47742;-59
2022/03/30 04:37:44;;;;;;;;;61.75;50.50;;;;;15.42;58.29;99710.84;2102770;28;48060;-59
2022/03/30 04:38:45;;;;;;;;;61.00;48.00;;;;;15.42;57.87;99709.97;2099823;28;47746;-61
2022/03/30 04:39:46;;;;;;;;;56.00;45.20;;;;;15.42;58.27;99704.63;2093847;28;47660;-60
2022/03/30 04:40:46;;;;;;;;;62.00;50.25;;;;;15.43;58.31;99709.03;2093904;28;47615;-60
2022/03/30 04:41:47;;;;;;;;;62.50;50.00;;;;;15.43;57.91;99706.34;2100621;28;48285;-61
2022/03/30 04:42:48;;;;;;;;;61.50;50.50;;;;;15.44;58.25;99713.41;2094044;27;47177;-61
2022/03/30 04:43:49;;;;;;;;;64.20;50.80;;;;;15.44;57.85;99703.59;2086585;28;47710;-60